createdAt,value
2022-12-18T00:02:22.345Z,12.40
2022-12-18T00:04:49.868Z,17.83
2022-12-18T00:07:16.715Z,10.80
2022-12-18T00:09:43.770Z,10.80
2022-12-18T00:14:43.028Z,7.82
2022-12-18T00:17:09.971Z,13.37
2022-12-18T00:19:37.475Z,16.23
2022-12-18T00:22:04.375Z,9.53
2022-12-18T00:24:31.632Z,8.80
2022-12-18T00:26:58.688Z,10.30
2022-12-18T00:29:26.951Z,10.87
2022-12-18T00:31:54.077Z,9.10
2022-12-18T00:34:21.365Z,10.30
2022-12-18T00:36:49.305Z,8.57
2022-12-18T00:39:16.224Z,12.07
2022-12-18T00:41:45.344Z,13.27
2022-12-18T00:44:14.601Z,10.47
2022-12-18T00:46:43.918Z,10.80
2022-12-18T00:49:11.054Z,7.43
2022-12-18T00:51:38.249Z,8.90
2022-12-18T00:54:05.264Z,10.67
2022-12-18T00:56:32.600Z,10.83
2022-12-18T00:58:59.447Z,13.50
2022-12-18T01:01:26.700Z,7.47
2022-12-18T01:03:55.216Z,11.70
2022-12-18T01:06:21.929Z,6.00
2022-12-18T01:08:49.038Z,9.57
2022-12-18T01:11:19.551Z,10.33
2022-12-18T01:13:47.228Z,10.10
2022-12-18T01:16:16.584Z,8.37
2022-12-18T01:18:50.153Z,11.77
2022-12-18T01:21:18.250Z,7.60
2022-12-18T01:23:45.074Z,8.17
2022-12-18T01:26:16.220Z,7.50
2022-12-18T01:28:44.911Z,5.65
2022-12-18T01:31:19.369Z,11.33
2022-12-18T01:33:47.311Z,10.93
2022-12-18T01:36:21.922Z,9.13
2022-12-18T01:38:49.828Z,11.43
2022-12-18T01:41:20.158Z,10.53
2022-12-18T01:43:53.653Z,11.20
2022-12-18T01:46:24.936Z,12.17
2022-12-18T01:48:57.617Z,10.40
2022-12-18T01:51:29.423Z,9.77
2022-12-18T01:53:57.665Z,9.02
2022-12-18T01:56:24.712Z,8.17
2022-12-18T01:58:59.373Z,12.47
2022-12-18T02:01:27.513Z,7.23
2022-12-18T02:03:54.407Z,9.37
2022-12-18T02:06:34.353Z,6.23
2022-12-18T02:09:14.414Z,10.27
2022-12-18T02:11:50.694Z,7.37
2022-12-18T02:14:28.493Z,8.60
2022-12-18T02:17:04.939Z,8.90
2022-12-18T02:19:55.055Z,11.03
2022-12-18T02:22:38.520Z,8.97
2022-12-18T02:25:25.414Z,9.40
2022-12-18T02:28:00.522Z,8.50
2022-12-18T02:30:38.557Z,11.10
2022-12-18T02:33:10.931Z,9.60
2022-12-18T02:35:42.899Z,9.90
2022-12-18T02:38:12.043Z,13.17
2022-12-18T02:40:42.975Z,9.07
2022-12-18T02:43:15.105Z,8.63
2022-12-18T02:45:49.640Z,8.82
2022-12-18T02:48:23.274Z,6.90
2022-12-18T02:51:04.108Z,9.00
2022-12-18T02:53:41.539Z,10.40
2022-12-18T02:56:16.491Z,7.80
2022-12-18T02:58:57.069Z,7.40
2022-12-18T03:01:58.411Z,9.97
2022-12-18T03:04:37.996Z,4.57
2022-12-18T03:07:12.334Z,6.87
2022-12-18T03:09:46.959Z,9.93
2022-12-18T03:12:22.122Z,9.27
2022-12-18T03:14:57.012Z,7.63
2022-12-18T03:17:27.550Z,7.07
2022-12-18T03:20:01.015Z,9.57
2022-12-18T03:22:33.179Z,10.00
2022-12-18T03:27:32.554Z,7.63
2022-12-18T03:30:12.499Z,8.43
2022-12-18T03:32:45.493Z,8.60
2022-12-18T03:35:21.603Z,4.90
2022-12-18T03:37:48.545Z,7.40
2022-12-18T03:40:15.983Z,7.90
2022-12-18T03:42:51.306Z,9.23
2022-12-18T03:45:28.036Z,7.90
2022-12-18T03:48:05.161Z,7.37
2022-12-18T03:50:48.958Z,7.07
2022-12-18T03:53:29.966Z,7.07
2022-12-18T03:56:00.100Z,7.67
2022-12-18T03:58:37.547Z,9.23
2022-12-18T04:01:35.117Z,7.83
2022-12-18T04:04:04.486Z,9.63
2022-12-18T04:06:36.119Z,10.90
2022-12-18T04:09:04.148Z,5.67
2022-12-18T04:11:33.200Z,7.30
2022-12-18T04:14:07.072Z,6.77
2022-12-18T04:16:37.094Z,6.97
2022-12-18T04:19:06.337Z,7.10
2022-12-18T04:21:39.240Z,8.80
2022-12-18T04:24:07.783Z,4.27
2022-12-18T04:26:36.560Z,11.47
2022-12-18T04:29:26.556Z,7.07
2022-12-18T04:31:54.719Z,9.47
2022-12-18T04:34:22.394Z,3.57
2022-12-18T04:36:52.575Z,7.60
2022-12-18T04:39:20.676Z,8.27
2022-12-18T04:41:49.786Z,5.07
2022-12-18T04:44:16.488Z,3.13
2022-12-18T04:46:43.424Z,7.63
2022-12-18T04:49:11.795Z,6.47
2022-12-18T04:51:38.656Z,7.80
2022-12-18T04:54:06.178Z,4.23
2022-12-18T04:56:33.358Z,6.00
2022-12-18T04:59:00.812Z,6.97
2022-12-18T05:01:34.086Z,6.13
2022-12-18T05:04:01.649Z,5.53
2022-12-18T05:06:30.373Z,5.77
2022-12-18T05:08:57.576Z,6.23
2022-12-18T05:11:24.652Z,6.77
2022-12-18T05:13:51.590Z,8.40
2022-12-18T05:16:18.744Z,5.30
2022-12-18T05:18:49.913Z,6.73
2022-12-18T05:21:16.869Z,11.53
2022-12-18T05:23:45.022Z,6.53
2022-12-18T05:26:17.355Z,6.23
2022-12-18T05:28:46.231Z,9.03
2022-12-18T05:31:13.141Z,9.13
2022-12-18T05:33:40.367Z,6.13
2022-12-18T05:36:10.248Z,6.20
2022-12-18T05:38:39.696Z,7.07
2022-12-18T05:41:09.276Z,8.40
2022-12-18T05:43:39.107Z,8.00
2022-12-18T05:46:11.911Z,10.93
2022-12-18T05:48:38.781Z,9.13
2022-12-18T05:51:08.446Z,7.97
2022-12-18T05:53:37.552Z,7.70
2022-12-18T05:56:10.034Z,6.40
2022-12-18T06:01:09.462Z,8.63
2022-12-18T06:03:37.497Z,5.97
2022-12-18T06:06:05.072Z,12.90
2022-12-18T06:08:32.358Z,8.87
2022-12-18T06:10:59.182Z,6.53
2022-12-18T06:13:27.615Z,6.77
2022-12-18T06:15:54.707Z,7.00
2022-12-18T06:18:21.576Z,10.83
2022-12-18T06:20:56.097Z,7.63
2022-12-18T06:23:23.440Z,5.83
2022-12-18T06:25:50.546Z,8.43
2022-12-18T06:28:23.505Z,8.70
2022-12-18T06:31:03.188Z,10.47
2022-12-18T06:33:34.714Z,11.30
2022-12-18T06:36:14.066Z,7.50
2022-12-18T06:38:45.968Z,6.93
2022-12-18T06:41:23.429Z,6.53
2022-12-18T06:44:00.400Z,8.63
2022-12-18T06:46:38.713Z,9.17
2022-12-18T06:49:15.665Z,7.30
2022-12-18T06:51:45.015Z,8.77
2022-12-18T06:54:20.081Z,6.20
2022-12-18T06:56:50.839Z,6.87
2022-12-18T06:59:24.196Z,7.80
2022-12-18T07:01:57.451Z,3.25
2022-12-18T07:04:34.481Z,7.40
2022-12-18T07:07:07.945Z,4.87
2022-12-18T07:09:44.882Z,5.60
2022-12-18T07:12:21.778Z,8.27
2022-12-18T07:14:58.234Z,12.50
2022-12-18T07:17:36.745Z,6.63
2022-12-18T07:20:09.633Z,8.18
2022-12-18T07:22:48.897Z,8.23
2022-12-18T07:25:26.322Z,6.37
2022-12-18T07:27:58.186Z,5.30
2022-12-18T07:30:38.699Z,5.73
2022-12-18T07:33:17.394Z,7.23
2022-12-18T07:35:49.519Z,8.40
2022-12-18T07:38:26.251Z,9.63
2022-12-18T07:41:02.718Z,11.17
2022-12-18T07:43:36.119Z,8.43
2022-12-18T07:46:14.081Z,10.83
2022-12-18T07:48:51.846Z,6.47
2022-12-18T07:51:28.855Z,8.00
2022-12-18T07:54:00.461Z,8.40
2022-12-18T07:56:37.669Z,9.23
2022-12-18T07:59:20.033Z,10.87
2022-12-18T08:01:57.092Z,10.52
2022-12-18T08:04:35.835Z,7.70
2022-12-18T08:07:14.048Z,5.13
2022-12-18T08:09:49.796Z,4.47
2022-12-18T08:12:24.831Z,8.40
2022-12-18T08:15:00.912Z,11.67
2022-12-18T08:17:34.612Z,8.13
2022-12-18T08:20:13.987Z,8.57
2022-12-18T08:22:51.253Z,10.63
2022-12-18T08:25:28.098Z,8.33
2022-12-18T08:28:05.150Z,10.07
2022-12-18T08:30:42.367Z,13.40
2022-12-18T08:33:19.511Z,7.03
2022-12-18T08:35:59.951Z,9.27
2022-12-18T08:38:36.875Z,8.37
2022-12-18T08:41:16.833Z,11.07
2022-12-18T08:43:52.789Z,11.83
2022-12-18T08:46:37.929Z,10.37
2022-12-18T08:49:15.124Z,10.00
2022-12-18T08:51:43.620Z,12.50
2022-12-18T08:54:18.403Z,13.90
2022-12-18T08:56:55.279Z,10.80
2022-12-18T08:59:32.445Z,8.43
2022-12-18T09:02:10.844Z,13.30
2022-12-18T09:04:51.137Z,11.70
2022-12-18T09:07:32.160Z,10.13
2022-12-18T09:10:09.550Z,10.00
2022-12-18T09:12:46.332Z,11.03
2022-12-18T09:15:23.098Z,8.47
2022-12-18T09:17:59.805Z,8.90
2022-12-18T09:20:36.534Z,9.53
2022-12-18T09:23:15.641Z,7.87
2022-12-18T09:25:52.379Z,10.23
2022-12-18T09:28:29.429Z,9.73
2022-12-18T09:31:09.881Z,10.20
2022-12-18T09:33:43.560Z,15.57
2022-12-18T09:36:20.455Z,13.70
2022-12-18T09:39:00.846Z,11.90
2022-12-18T09:41:43.519Z,9.97
2022-12-18T09:44:23.174Z,9.23
2022-12-18T09:47:00.504Z,9.93
2022-12-18T09:49:35.050Z,11.27
2022-12-18T09:52:11.486Z,9.37
2022-12-18T09:54:42.358Z,7.03
2022-12-18T09:57:16.520Z,10.43
2022-12-18T09:59:49.844Z,12.90
2022-12-18T10:02:19.973Z,10.60
2022-12-18T10:05:01.859Z,9.10
2022-12-18T10:07:43.594Z,12.35
2022-12-18T10:10:27.749Z,9.10
2022-12-18T10:13:04.844Z,10.87
2022-12-18T10:15:46.870Z,10.50
2022-12-18T10:18:29.988Z,7.90
2022-12-18T10:21:08.432Z,13.20
2022-12-18T10:23:51.447Z,14.60
2022-12-18T10:26:19.762Z,13.40
2022-12-18T10:28:48.263Z,8.37
2022-12-18T10:31:19.578Z,10.03
2022-12-18T10:33:47.377Z,11.20
2022-12-18T10:36:14.709Z,7.93
2022-12-18T10:38:42.636Z,9.80
2022-12-18T10:41:27.724Z,9.90
2022-12-18T10:44:16.814Z,12.13
2022-12-18T10:47:06.201Z,12.97
2022-12-18T10:49:51.179Z,12.63
2022-12-18T10:52:28.647Z,12.77
2022-12-18T10:55:06.514Z,12.40
2022-12-18T10:57:44.779Z,12.20
2022-12-18T11:00:30.330Z,11.67
2022-12-18T11:03:00.976Z,9.30
2022-12-18T11:05:36.381Z,11.13
2022-12-18T11:08:04.857Z,14.20
2022-12-18T11:10:47.984Z,12.37
2022-12-18T11:13:30.141Z,10.93
2022-12-18T11:16:00.368Z,10.60
2022-12-18T11:18:36.890Z,8.63
2022-12-18T11:21:30.705Z,10.33
2022-12-18T11:24:01.639Z,11.93
2022-12-18T11:26:36.107Z,11.87
2022-12-18T11:29:23.372Z,7.87
2022-12-18T11:32:27.986Z,12.80
2022-12-18T11:35:15.811Z,10.47
2022-12-18T11:38:07.791Z,11.73
2022-12-18T11:40:46.429Z,11.43
2022-12-18T11:43:21.709Z,9.73
2022-12-18T11:45:55.475Z,16.27
2022-12-18T11:48:40.173Z,13.47
2022-12-18T11:51:29.067Z,11.07
2022-12-18T11:54:13.709Z,9.77
2022-12-18T11:56:54.942Z,10.45
2022-12-18T11:59:50.282Z,12.43
2022-12-18T12:03:15.632Z,11.10
2022-12-18T12:06:09.454Z,10.80
2022-12-18T12:09:02.107Z,12.87
2022-12-18T12:11:53.951Z,11.23
2022-12-18T12:14:51.602Z,14.53
2022-12-18T12:17:38.994Z,10.57
2022-12-18T12:20:26.815Z,10.07
2022-12-18T12:23:05.595Z,13.03
2022-12-18T12:25:47.576Z,11.07
2022-12-18T12:28:37.754Z,11.70
2022-12-18T12:31:22.333Z,12.13
2022-12-18T12:34:07.189Z,11.50
2022-12-18T12:36:58.224Z,10.87
2022-12-18T12:39:33.496Z,15.93
2022-12-18T12:42:18.866Z,15.80
2022-12-18T12:44:56.536Z,13.47
2022-12-18T12:47:31.584Z,13.27
2022-12-18T12:50:04.966Z,13.40
2022-12-18T12:52:42.038Z,14.47
2022-12-18T12:55:18.496Z,12.60
2022-12-18T12:58:24.399Z,19.53
2022-12-18T13:01:05.535Z,12.57
2022-12-18T13:03:48.931Z,14.50
2022-12-18T13:06:36.934Z,18.33
2022-12-18T13:09:06.094Z,22.23
2022-12-18T13:11:38.671Z,17.33
2022-12-18T13:14:05.991Z,16.17
2022-12-18T13:16:32.876Z,18.67
2022-12-18T13:19:00.135Z,26.53
2022-12-18T13:21:30.599Z,22.60
2022-12-18T13:24:21.430Z,15.18
2022-12-18T13:26:48.420Z,18.50
2022-12-18T13:29:43.792Z,17.97
2022-12-18T13:32:23.018Z,26.53
2022-12-18T13:35:39.820Z,19.20
2022-12-18T13:38:22.910Z,16.90
2022-12-18T13:41:00.458Z,14.93
2022-12-18T13:43:43.443Z,14.33
2022-12-18T13:46:25.320Z,19.53
2022-12-18T13:49:02.911Z,15.10
2022-12-18T13:51:33.810Z,13.80
2022-12-18T13:54:14.458Z,14.40
2022-12-18T13:56:46.471Z,16.10
2022-12-18T13:59:21.924Z,8.83
2022-12-18T14:01:55.378Z,15.53
2022-12-18T14:04:27.252Z,15.10
2022-12-18T14:10:41.112Z,14.83
2022-12-18T14:12:48.754Z,15.30
2022-12-18T14:15:30.923Z,20.87
2022-12-18T14:18:01.722Z,11.63
2022-12-18T14:20:31.857Z,14.60
2022-12-18T14:23:00.127Z,19.50
2022-12-18T14:25:31.928Z,13.50
2022-12-18T14:28:14.895Z,23.97
2022-12-18T14:33:13.072Z,17.13
2022-12-18T14:35:43.618Z,13.10
2022-12-18T14:38:25.847Z,16.27
2022-12-18T14:45:53.580Z,12.20
2022-12-18T14:48:31.171Z,9.83
2022-12-18T14:51:02.219Z,13.63
2022-12-18T14:53:47.587Z,19.63
2022-12-18T14:56:22.849Z,14.83
2022-12-18T14:58:53.811Z,15.88
2022-12-18T15:01:24.614Z,15.37
2022-12-18T15:03:52.991Z,13.17
2022-12-18T15:06:30.543Z,13.90
2022-12-18T15:08:58.426Z,12.43
2022-12-18T15:11:37.128Z,14.03
2022-12-18T15:14:31.985Z,14.53
2022-12-18T15:17:00.939Z,12.67
2022-12-18T15:19:36.686Z,30.50
2022-12-18T15:22:06.671Z,31.17
2022-12-18T15:24:33.968Z,27.23
2022-12-18T15:27:02.259Z,18.93
2022-12-18T15:29:29.172Z,17.83
2022-12-18T15:32:02.451Z,21.33
2022-12-18T15:34:30.840Z,18.07
2022-12-18T15:36:57.711Z,21.77
2022-12-18T15:39:25.269Z,18.13
2022-12-18T15:41:52.749Z,16.40
2022-12-18T15:44:25.605Z,16.70
2022-12-18T15:46:52.493Z,16.10
2022-12-18T15:49:19.250Z,17.47
2022-12-18T15:51:51.960Z,14.57
2022-12-18T15:54:18.946Z,15.27
2022-12-18T15:56:46.340Z,15.73
2022-12-18T15:59:16.107Z,19.43
2022-12-18T16:01:47.325Z,13.77
2022-12-18T16:04:17.874Z,17.33
2022-12-18T16:07:13.288Z,18.17
2022-12-18T16:09:31.461Z,15.03
2022-12-18T16:11:58.471Z,21.53
2022-12-18T16:14:27.786Z,11.37
2022-12-18T16:16:58.563Z,15.33
2022-12-18T16:19:26.975Z,17.07
2022-12-18T16:21:57.361Z,25.30
2022-12-18T16:24:26.249Z,26.50
2022-12-18T16:26:54.820Z,24.60
2022-12-18T16:29:22.136Z,21.17
2022-12-18T16:31:49.231Z,20.13
2022-12-18T16:34:22.758Z,22.23
2022-12-18T16:36:52.313Z,17.30
2022-12-18T16:39:19.214Z,15.90
2022-12-18T16:41:46.354Z,16.00
2022-12-18T16:44:13.885Z,23.37
2022-12-18T16:46:41.696Z,25.73
2022-12-18T16:49:09.407Z,17.20
2022-12-18T16:51:37.737Z,25.70
2022-12-18T16:54:10.172Z,24.57
2022-12-18T16:56:41.707Z,22.70
2022-12-18T16:59:11.689Z,17.80
2022-12-18T17:01:38.998Z,19.10
2022-12-18T17:04:07.074Z,20.30
2022-12-18T17:06:40.116Z,21.37
2022-12-18T17:09:11.835Z,17.80
2022-12-18T17:11:38.955Z,17.10
2022-12-18T17:14:12.964Z,15.03
2022-12-18T17:16:40.137Z,20.03
2022-12-18T17:19:10.994Z,21.80
2022-12-18T17:21:43.996Z,20.73
2022-12-18T17:24:11.555Z,17.77
2022-12-18T17:26:38.565Z,21.00
2022-12-18T17:29:06.784Z,16.70
2022-12-18T17:31:35.029Z,17.57
2022-12-18T17:34:03.003Z,12.23
2022-12-18T17:36:30.395Z,17.50
2022-12-18T17:39:01.258Z,16.23
2022-12-18T17:41:30.201Z,15.50
2022-12-18T17:43:59.583Z,15.17
2022-12-18T17:46:29.261Z,13.77
2022-12-18T17:48:57.212Z,16.10
2022-12-18T17:51:24.264Z,27.03
2022-12-18T17:53:51.379Z,14.67
2022-12-18T17:56:22.527Z,15.23
2022-12-18T17:58:50.543Z,18.07
2022-12-18T18:01:20.339Z,16.40
2022-12-18T18:03:48.966Z,15.07
2022-12-18T18:06:20.645Z,14.47
2022-12-18T18:08:47.752Z,17.73
2022-12-18T18:11:17.798Z,25.57
2022-12-18T18:13:47.544Z,16.33
2022-12-18T18:16:14.481Z,16.20
2022-12-18T18:18:47.187Z,21.07
2022-12-18T18:21:14.323Z,15.87
2022-12-18T18:23:43.504Z,13.23
2022-12-18T18:26:12.712Z,18.60
2022-12-18T18:28:39.655Z,16.27
2022-12-18T18:31:10.336Z,10.87
2022-12-18T18:33:38.366Z,8.13
2022-12-18T18:36:09.910Z,13.23
2022-12-18T18:38:38.303Z,13.63
2022-12-18T18:41:06.252Z,14.63
2022-12-18T18:43:34.902Z,14.33
2022-12-18T18:46:07.695Z,17.33
2022-12-18T18:48:36.587Z,12.05
2022-12-18T18:51:07.308Z,13.43
2022-12-18T18:53:37.436Z,13.67
2022-12-18T18:56:40.858Z,13.33
2022-12-18T18:58:54.583Z,14.30
2022-12-18T19:01:25.139Z,12.83
2022-12-18T19:03:53.736Z,10.10
2022-12-18T19:06:23.575Z,11.13
2022-12-18T19:08:52.270Z,8.23
2022-12-18T19:11:21.077Z,15.80
2022-12-18T19:13:48.650Z,15.03
2022-12-18T19:16:15.648Z,12.50
2022-12-18T19:18:44.564Z,12.20
2022-12-18T19:21:37.289Z,12.47
2022-12-18T19:24:05.443Z,19.73
2022-12-18T19:26:32.441Z,15.27
2022-12-18T19:29:04.626Z,15.80
2022-12-18T19:31:36.053Z,15.25
2022-12-18T19:34:05.865Z,14.90
2022-12-18T19:36:33.546Z,17.50
2022-12-18T19:39:02.031Z,13.83
2022-12-18T19:41:32.809Z,14.07
2022-12-18T19:44:01.117Z,9.93
2022-12-18T19:46:35.064Z,15.33
2022-12-18T19:49:01.944Z,14.97
2022-12-18T19:51:32.122Z,14.83
2022-12-18T19:54:01.844Z,15.57
2022-12-18T19:56:32.363Z,11.13
2022-12-18T19:58:59.680Z,13.83
2022-12-18T20:01:28.530Z,10.93
2022-12-18T20:03:56.851Z,13.50
2022-12-18T20:06:28.165Z,16.20
2022-12-18T20:09:00.565Z,14.10
2022-12-18T20:11:28.897Z,17.67
2022-12-18T20:13:56.051Z,16.87
2022-12-18T20:16:23.202Z,19.00
2022-12-18T20:18:50.040Z,15.40
2022-12-18T20:21:18.380Z,19.07
2022-12-18T20:23:45.524Z,15.57
2022-12-18T20:26:13.817Z,13.00
2022-12-18T20:28:40.849Z,22.03
2022-12-18T20:31:10.517Z,18.87
2022-12-18T20:33:42.040Z,16.20
2022-12-18T20:36:14.470Z,24.10
2022-12-18T20:38:43.183Z,21.90
2022-12-18T20:41:17.506Z,18.30
2022-12-18T20:43:45.062Z,17.90
2022-12-18T20:46:15.818Z,12.67
2022-12-18T20:48:45.930Z,12.17
2022-12-18T20:51:16.379Z,19.90
2022-12-18T20:53:43.986Z,19.07
2022-12-18T20:56:18.373Z,22.73
2022-12-18T20:58:50.228Z,23.90
2022-12-18T21:01:21.259Z,14.77
2022-12-18T21:03:49.606Z,14.80
2022-12-18T21:06:19.812Z,15.17
2022-12-18T21:08:47.464Z,17.13
2022-12-18T21:11:26.900Z,18.10
2022-12-18T21:13:54.942Z,13.30
2022-12-18T21:16:22.313Z,19.30
2022-12-18T21:18:49.049Z,23.20
2022-12-18T21:21:16.205Z,17.77
2022-12-18T21:23:43.216Z,13.30
2022-12-18T21:26:20.004Z,16.43
2022-12-18T21:28:47.069Z,10.90
2022-12-18T21:31:14.651Z,18.13
2022-12-18T21:33:41.828Z,11.53
2022-12-18T21:36:10.417Z,15.63
2022-12-18T21:38:37.185Z,16.23
2022-12-18T21:41:07.106Z,17.50
2022-12-18T21:43:37.516Z,17.90
2022-12-18T21:46:04.737Z,16.87
2022-12-18T21:48:31.707Z,14.70
2022-12-18T21:50:58.452Z,11.47
2022-12-18T21:53:25.471Z,16.47
2022-12-18T21:55:57.742Z,17.23
2022-12-18T21:58:25.056Z,14.83
2022-12-18T22:00:53.459Z,12.47
2022-12-18T22:03:20.618Z,17.40
2022-12-18T22:05:50.607Z,16.20
2022-12-18T22:08:29.829Z,17.70
2022-12-18T22:10:56.924Z,13.00
2022-12-18T22:13:23.766Z,17.30
2022-12-18T22:15:50.679Z,13.33
2022-12-18T22:18:19.107Z,16.83
2022-12-18T22:20:45.846Z,12.90
2022-12-18T22:23:13.195Z,9.17
2022-12-18T22:25:40.217Z,15.60
2022-12-18T22:28:07.420Z,15.17
2022-12-18T22:30:34.456Z,16.80
2022-12-18T22:33:02.003Z,15.50
2022-12-18T22:35:30.456Z,15.90
2022-12-18T22:37:58.713Z,14.03
2022-12-18T22:40:27.869Z,12.63
2022-12-18T22:42:55.571Z,15.77
2022-12-18T22:45:22.920Z,17.37
2022-12-18T22:47:50.495Z,17.37
2022-12-18T22:50:17.447Z,13.93
2022-12-18T22:52:45.834Z,14.97
2022-12-18T22:55:12.863Z,21.17
2022-12-18T22:57:39.902Z,13.23
2022-12-18T23:00:17.602Z,15.50
2022-12-18T23:02:49.424Z,16.98
2022-12-18T23:05:18.071Z,15.80
2022-12-18T23:07:46.145Z,14.87
2022-12-18T23:10:12.919Z,20.63
2022-12-18T23:12:39.747Z,14.70
2022-12-18T23:15:07.310Z,15.17
2022-12-18T23:17:34.074Z,15.70
2022-12-18T23:20:01.828Z,16.70
2022-12-18T23:22:30.226Z,14.37
2022-12-18T23:24:59.427Z,17.23
2022-12-18T23:27:26.174Z,16.37
2022-12-18T23:29:53.194Z,14.63
2022-12-18T23:32:22.412Z,12.27
2022-12-18T23:34:49.215Z,13.53
2022-12-18T23:37:35.316Z,17.83
2022-12-18T23:40:05.598Z,17.83
2022-12-18T23:42:32.449Z,14.03
2022-12-18T23:45:09.368Z,14.70
2022-12-18T23:47:45.283Z,15.57
2022-12-18T23:50:14.976Z,11.53
2022-12-18T23:52:42.015Z,15.70
2022-12-18T23:55:10.409Z,15.60
2022-12-18T23:57:37.088Z,14.47
